createdAt,value
2018-08-17T00:00:55.162Z,19.28
2018-08-17T00:03:24.793Z,19.23
2018-08-17T00:05:53.460Z,19.13
2018-08-17T00:08:22.166Z,19.09
2018-08-17T00:10:50.729Z,19.05
2018-08-17T00:13:19.360Z,19.03
2018-08-17T00:15:48.026Z,19.02
2018-08-17T00:18:16.683Z,18.98
2018-08-17T00:20:45.305Z,18.99
2018-08-17T00:23:13.901Z,19.09
2018-08-17T00:25:42.567Z,19.00
2018-08-17T00:28:11.174Z,18.98
2018-08-17T00:30:40.102Z,18.95
2018-08-17T00:33:09.147Z,18.88
2018-08-17T00:35:37.758Z,18.76
2018-08-17T00:38:06.489Z,18.72
2018-08-17T00:40:35.075Z,18.78
2018-08-17T00:43:03.766Z,18.75
2018-08-17T00:45:32.375Z,18.73
2018-08-17T00:48:01.063Z,18.74
2018-08-17T00:50:29.662Z,18.67
2018-08-17T00:52:58.310Z,18.59
2018-08-17T00:55:26.967Z,18.55
2018-08-17T00:57:55.569Z,18.53
2018-08-17T01:00:24.214Z,18.53
2018-08-17T01:02:52.827Z,18.56
2018-08-17T01:05:21.450Z,18.54
2018-08-17T01:07:50.081Z,18.50
2018-08-17T01:10:18.693Z,18.45
2018-08-17T01:12:47.298Z,18.40
2018-08-17T01:15:15.996Z,18.31
2018-08-17T01:17:44.618Z,18.22
2018-08-17T01:20:13.765Z,18.18
2018-08-17T01:22:42.668Z,18.18
2018-08-17T01:25:11.283Z,18.13
2018-08-17T01:27:39.891Z,18.10
2018-08-17T01:30:09.319Z,18.03
2018-08-17T01:32:38.254Z,17.98
2018-08-17T01:35:07.263Z,17.95
2018-08-17T01:37:35.945Z,17.90
2018-08-17T01:40:04.834Z,17.87
2018-08-17T01:42:33.445Z,17.85
2018-08-17T01:45:02.066Z,17.84
2018-08-17T01:47:30.663Z,17.81
2018-08-17T01:49:59.273Z,17.79
2018-08-17T01:52:27.943Z,17.72
2018-08-17T01:54:56.530Z,17.69
2018-08-17T01:57:25.141Z,17.65
2018-08-17T01:59:53.810Z,17.64
2018-08-17T02:02:22.545Z,17.62
2018-08-17T02:04:51.115Z,17.61
2018-08-17T02:07:19.756Z,17.63
2018-08-17T02:09:48.339Z,17.60
2018-08-17T02:12:16.914Z,17.55
2018-08-17T02:14:45.695Z,17.49
2018-08-17T02:17:14.287Z,17.46
2018-08-17T02:19:42.874Z,17.40
2018-08-17T02:22:11.566Z,17.37
2018-08-17T02:24:40.206Z,17.41
2018-08-17T02:27:08.851Z,17.38
2018-08-17T02:29:37.462Z,17.40
2018-08-17T02:32:06.914Z,17.44
2018-08-17T02:34:35.514Z,17.41
2018-08-17T02:37:04.278Z,17.35
2018-08-17T02:39:32.867Z,17.28
2018-08-17T02:42:01.475Z,17.30
2018-08-17T02:44:30.107Z,17.30
2018-08-17T02:46:58.733Z,17.32
2018-08-17T02:49:27.369Z,17.37
2018-08-17T02:51:55.966Z,17.47
2018-08-17T02:54:24.613Z,17.53
2018-08-17T02:56:53.259Z,17.44
2018-08-17T02:59:21.958Z,17.35
2018-08-17T03:01:50.490Z,17.29
2018-08-17T03:04:19.142Z,17.19
2018-08-17T03:06:47.837Z,17.12
2018-08-17T03:09:16.486Z,17.06
2018-08-17T03:11:45.074Z,17.05
2018-08-17T03:14:13.693Z,17.05
2018-08-17T03:16:42.270Z,16.99
2018-08-17T03:19:10.874Z,16.91
2018-08-17T03:21:39.491Z,16.88
2018-08-17T03:24:08.167Z,16.87
2018-08-17T03:26:36.750Z,16.82
2018-08-17T03:29:05.521Z,16.76
2018-08-17T03:31:34.129Z,16.74
2018-08-17T03:34:02.758Z,16.68
2018-08-17T03:36:31.379Z,16.65
2018-08-17T03:38:59.986Z,16.62
2018-08-17T03:41:28.599Z,16.62
2018-08-17T03:43:57.235Z,16.59
2018-08-17T03:46:25.899Z,16.56
2018-08-17T03:48:54.534Z,16.59
2018-08-17T03:51:23.229Z,16.61
2018-08-17T03:53:57.525Z,16.61
2018-08-17T03:56:26.131Z,16.58
2018-08-17T03:58:54.706Z,16.58
2018-08-17T04:01:23.476Z,16.54
2018-08-17T04:03:52.054Z,16.53
2018-08-17T04:06:20.763Z,16.55
2018-08-17T04:08:49.372Z,16.66
2018-08-17T04:11:18.094Z,16.78
2018-08-17T04:13:46.703Z,16.76
2018-08-17T04:16:15.288Z,16.91
2018-08-17T04:18:50.821Z,16.96
2018-08-17T04:21:19.437Z,16.98
2018-08-17T04:23:48.056Z,16.97
2018-08-17T04:26:16.651Z,17.00
2018-08-17T04:28:45.299Z,17.10
2018-08-17T04:31:13.875Z,17.14
2018-08-17T04:33:42.509Z,17.23
2018-08-17T04:36:11.167Z,17.36
2018-08-17T04:38:39.759Z,17.42
2018-08-17T04:41:08.414Z,17.52
2018-08-17T04:43:37.003Z,17.60
2018-08-17T04:46:05.973Z,17.65
2018-08-17T04:48:40.095Z,17.73
2018-08-17T04:53:42.755Z,17.81
2018-08-17T04:56:11.410Z,17.84
2018-08-17T04:58:40.016Z,17.91
2018-08-17T05:01:08.837Z,18.03
2018-08-17T05:03:37.437Z,18.07
2018-08-17T05:06:06.045Z,18.11
2018-08-17T05:08:34.690Z,18.21
2018-08-17T05:11:03.326Z,18.29
2018-08-17T05:13:31.929Z,18.37
2018-08-17T05:16:00.513Z,18.45
2018-08-17T05:18:29.160Z,18.49
2018-08-17T05:20:57.908Z,18.59
2018-08-17T05:23:26.613Z,18.67
2018-08-17T05:25:55.224Z,18.77
2018-08-17T05:28:23.945Z,18.85
2018-08-17T05:30:53.486Z,18.91
2018-08-17T05:33:22.130Z,18.98
2018-08-17T05:35:50.803Z,19.04
2018-08-17T05:38:19.490Z,19.13
2018-08-17T05:40:48.159Z,19.24
2018-08-17T05:43:16.799Z,19.38
2018-08-17T05:45:45.390Z,19.35
2018-08-17T05:48:14.063Z,19.38
2018-08-17T05:50:44.638Z,19.46
2018-08-17T05:53:13.321Z,19.54
2018-08-17T05:55:41.912Z,19.66
2018-08-17T05:58:10.551Z,19.75
2018-08-17T06:00:39.175Z,19.94
2018-08-17T06:03:07.876Z,20.15
2018-08-17T06:05:36.590Z,20.27
2018-08-17T06:08:05.334Z,20.32
2018-08-17T06:10:37.167Z,20.54
2018-08-17T06:13:11.089Z,20.59
2018-08-17T06:15:39.738Z,20.75
2018-08-17T06:18:09.131Z,20.91
2018-08-17T06:20:37.958Z,21.03
2018-08-17T06:23:06.625Z,21.18
2018-08-17T06:25:35.329Z,21.40
2018-08-17T06:28:04.246Z,21.47
2018-08-17T06:30:33.045Z,21.50
2018-08-17T06:33:01.827Z,21.65
2018-08-17T06:35:31.292Z,21.74
2018-08-17T06:37:59.989Z,21.86
2018-08-17T06:40:28.629Z,22.02
2018-08-17T06:42:57.422Z,22.15
2018-08-17T06:45:27.392Z,22.33
2018-08-17T06:47:57.283Z,22.36
2018-08-17T06:50:25.921Z,22.47
2018-08-17T06:52:54.649Z,22.58
2018-08-17T06:55:23.726Z,22.75
2018-08-17T06:57:52.731Z,22.72
2018-08-17T07:00:21.557Z,22.81
2018-08-17T07:02:50.373Z,22.96
2018-08-17T07:05:19.636Z,22.99
2018-08-17T07:07:48.354Z,23.20
2018-08-17T07:10:17.081Z,23.22
2018-08-17T07:12:46.166Z,23.33
2018-08-17T07:15:14.955Z,23.32
2018-08-17T07:17:43.674Z,23.52
2018-08-17T07:20:13.590Z,23.61
2018-08-17T07:22:42.704Z,23.72
2018-08-17T07:25:12.099Z,23.83
2018-08-17T07:27:40.909Z,24.07
2018-08-17T07:30:10.357Z,24.36
2018-08-17T07:32:39.120Z,24.47
2018-08-17T07:35:09.502Z,24.48
2018-08-17T07:37:38.237Z,24.61
2018-08-17T07:40:07.067Z,24.78
2018-08-17T07:42:35.737Z,24.85
2018-08-17T07:45:05.810Z,25.12
2018-08-17T07:47:34.474Z,25.22
2018-08-17T07:50:03.113Z,25.30
2018-08-17T07:52:31.736Z,25.32
2018-08-17T07:55:02.376Z,25.42
2018-08-17T07:57:31.007Z,25.44
2018-08-17T07:59:59.617Z,25.45
2018-08-17T08:02:28.217Z,25.49
2018-08-17T08:04:56.926Z,25.58
2018-08-17T08:07:25.524Z,25.69
2018-08-17T08:09:54.170Z,25.66
2018-08-17T08:12:22.845Z,25.74
2018-08-17T08:14:51.665Z,25.73
2018-08-17T08:17:20.345Z,25.70
2018-08-17T08:20:52.122Z,25.80
2018-08-17T08:23:24.724Z,25.90
2018-08-17T08:25:53.449Z,25.88
2018-08-17T08:28:22.389Z,25.95
2018-08-17T08:30:51.158Z,26.13
2018-08-17T08:33:20.546Z,26.09
2018-08-17T08:35:52.651Z,26.19
2018-08-17T08:38:21.821Z,26.05
2018-08-17T08:40:50.441Z,26.21
2018-08-17T08:43:19.314Z,26.26
2018-08-17T08:45:48.289Z,26.38
2018-08-17T08:48:16.939Z,26.52
2018-08-17T08:50:45.677Z,26.57
2018-08-17T08:53:14.563Z,26.72
2018-08-17T08:55:43.360Z,26.79
2018-08-17T08:58:12.193Z,27.17
2018-08-17T09:00:40.881Z,27.35
2018-08-17T09:03:09.496Z,27.45
2018-08-17T09:05:38.172Z,27.54
2018-08-17T09:08:07.033Z,27.54
2018-08-17T09:10:35.628Z,27.68
2018-08-17T09:13:04.489Z,27.61
2018-08-17T09:15:36.740Z,27.63
2018-08-17T09:18:05.473Z,27.80
2018-08-17T09:20:34.931Z,27.79
2018-08-17T09:23:05.558Z,27.85
2018-08-17T09:25:34.829Z,28.07
2018-08-17T09:28:03.615Z,28.11
2018-08-17T09:30:32.450Z,28.23
2018-08-17T09:33:01.109Z,28.38
2018-08-17T09:35:29.803Z,28.47
2018-08-17T09:37:58.691Z,28.47
2018-08-17T09:40:27.548Z,28.57
2018-08-17T09:42:56.343Z,28.66
2018-08-17T09:45:25.117Z,28.81
2018-08-17T09:47:53.721Z,28.71
2018-08-17T09:50:22.434Z,28.75
2018-08-17T09:52:51.092Z,28.94
2018-08-17T09:55:22.691Z,28.96
2018-08-17T09:57:51.330Z,28.95
2018-08-17T10:00:20.177Z,29.04
2018-08-17T10:02:54.029Z,29.12
2018-08-17T10:08:06.914Z,29.23
2018-08-17T10:10:35.592Z,29.28
2018-08-17T10:13:04.268Z,29.37
2018-08-17T10:15:33.075Z,29.36
2018-08-17T10:18:01.733Z,29.45
2018-08-17T10:20:30.426Z,29.58
2018-08-17T10:22:59.175Z,29.76
2018-08-17T10:25:27.898Z,29.72
2018-08-17T10:27:57.880Z,29.68
2018-08-17T10:30:27.030Z,29.74
2018-08-17T10:32:59.987Z,29.76
2018-08-17T10:35:30.769Z,29.80
2018-08-17T10:38:00.665Z,29.79
2018-08-17T10:40:29.530Z,29.97
2018-08-17T10:42:59.573Z,30.05
2018-08-17T10:45:28.599Z,30.12
2018-08-17T10:47:57.736Z,30.15
2018-08-17T10:50:28.473Z,30.30
2018-08-17T10:52:59.621Z,30.28
2018-08-17T10:55:39.493Z,30.36
2018-08-17T10:58:09.256Z,30.10
2018-08-17T11:00:37.993Z,30.16
2018-08-17T11:03:06.809Z,30.13
2018-08-17T11:05:35.510Z,30.15
2018-08-17T11:08:05.720Z,30.42
2018-08-17T11:10:34.528Z,30.60
2018-08-17T11:13:03.286Z,30.69
2018-08-17T11:15:32.184Z,30.78
2018-08-17T11:18:00.946Z,31.05
2018-08-17T11:20:29.626Z,31.12
2018-08-17T11:22:58.501Z,31.21
2018-08-17T11:25:27.221Z,31.32
2018-08-17T11:27:56.064Z,31.38
2018-08-17T11:30:24.754Z,31.46
2018-08-17T11:32:53.510Z,31.22
2018-08-17T11:35:22.262Z,31.38
2018-08-17T11:37:50.954Z,31.38
2018-08-17T11:40:19.642Z,31.52
2018-08-17T11:42:49.279Z,31.61
2018-08-17T11:45:20.015Z,31.68
2018-08-17T11:47:49.117Z,31.75
2018-08-17T11:50:19.282Z,31.77
2018-08-17T11:52:53.102Z,31.91
2018-08-17T11:55:22.591Z,31.68
2018-08-17T11:57:51.403Z,31.78
2018-08-17T12:00:20.257Z,31.84
2018-08-17T12:02:49.168Z,32.11
2018-08-17T12:05:18.694Z,31.62
2018-08-17T12:07:48.263Z,31.78
2018-08-17T12:10:16.976Z,32.21
2018-08-17T12:12:46.277Z,32.41
2018-08-17T12:15:16.281Z,32.66
2018-08-17T12:17:45.141Z,32.76
2018-08-17T12:20:13.817Z,32.81
2018-08-17T12:22:42.674Z,32.99
2018-08-17T12:25:11.870Z,33.13
2018-08-17T12:27:46.686Z,33.41
2018-08-17T12:30:15.448Z,33.11
2018-08-17T12:32:44.245Z,33.06
2018-08-17T12:35:12.924Z,33.31
2018-08-17T12:37:41.925Z,33.79
2018-08-17T12:42:46.064Z,34.13
2018-08-17T12:45:18.049Z,34.23
2018-08-17T12:47:47.038Z,34.53
2018-08-17T12:50:15.813Z,34.79
2018-08-17T12:52:46.137Z,35.03
2018-08-17T12:55:14.888Z,35.10
2018-08-17T12:57:43.763Z,35.06
2018-08-17T13:00:13.254Z,35.30
2018-08-17T13:02:42.210Z,35.26
2018-08-17T13:05:10.946Z,35.45
2018-08-17T13:07:39.821Z,35.47
2018-08-17T13:10:08.754Z,35.44
2018-08-17T13:12:37.462Z,35.16
2018-08-17T13:15:06.325Z,35.41
2018-08-17T13:17:40.637Z,35.54
2018-08-17T13:20:09.272Z,35.79
2018-08-17T13:22:37.877Z,36.27
2018-08-17T13:25:08.081Z,35.90
2018-08-17T13:27:36.811Z,35.97
2018-08-17T13:30:07.963Z,35.83
2018-08-17T13:32:42.551Z,36.10
2018-08-17T13:35:12.001Z,36.39
2018-08-17T13:37:41.255Z,36.54
2018-08-17T13:40:11.188Z,36.76
2018-08-17T13:42:39.884Z,36.82
2018-08-17T13:45:09.745Z,36.55
2018-08-17T13:47:38.500Z,36.67
2018-08-17T13:50:07.717Z,36.92
2018-08-17T13:52:36.421Z,36.91
2018-08-17T13:55:05.118Z,37.09
2018-08-17T13:57:33.845Z,36.75
2018-08-17T14:00:02.851Z,36.45
2018-08-17T14:02:31.530Z,36.86
2018-08-17T14:05:00.388Z,37.09
2018-08-17T14:07:29.083Z,36.99
2018-08-17T14:09:57.718Z,37.20
2018-08-17T14:12:26.353Z,36.97
2018-08-17T14:14:54.961Z,37.15
2018-08-17T14:17:23.602Z,38.12
2018-08-17T14:19:52.234Z,38.32
2018-08-17T14:22:20.907Z,39.20
2018-08-17T14:24:49.810Z,40.02
2018-08-17T14:27:18.529Z,41.09
2018-08-17T14:29:47.171Z,41.35
2018-08-17T14:32:15.824Z,41.96
2018-08-17T14:34:44.483Z,42.46
2018-08-17T14:37:13.166Z,42.75
2018-08-17T14:39:41.870Z,42.87
2018-08-17T14:42:10.573Z,43.14
2018-08-17T14:44:39.259Z,43.30
2018-08-17T14:47:07.894Z,43.57
2018-08-17T14:49:36.564Z,43.47
2018-08-17T14:52:05.330Z,43.54
2018-08-17T14:54:34.076Z,43.47
2018-08-17T14:57:02.825Z,43.05
2018-08-17T14:59:31.543Z,44.29
2018-08-17T15:02:02.079Z,43.72
2018-08-17T15:04:30.786Z,43.11
2018-08-17T15:06:59.424Z,42.84
2018-08-17T15:09:28.077Z,42.88
2018-08-17T15:11:56.805Z,42.96
2018-08-17T15:14:25.665Z,43.47
2018-08-17T15:16:54.430Z,42.95
2018-08-17T15:19:23.152Z,41.41
2018-08-17T15:21:52.276Z,41.86
2018-08-17T15:24:20.980Z,42.47
2018-08-17T15:26:49.775Z,43.12
2018-08-17T15:29:18.476Z,43.66
2018-08-17T15:31:47.242Z,43.87
2018-08-17T15:34:15.946Z,44.19
2018-08-17T15:36:44.701Z,43.85
2018-08-17T15:39:13.489Z,42.18
2018-08-17T15:41:43.051Z,40.66
2018-08-17T15:44:15.935Z,39.27
2018-08-17T15:46:46.680Z,39.15
2018-08-17T15:49:20.218Z,39.98
2018-08-17T15:51:48.920Z,39.95
2018-08-17T15:54:17.581Z,39.50
2018-08-17T15:56:47.082Z,40.43
2018-08-17T15:59:15.775Z,41.80
2018-08-17T16:01:44.487Z,42.51
2018-08-17T16:04:13.170Z,43.14
2018-08-17T16:06:41.899Z,43.22
2018-08-17T16:09:12.303Z,42.97
2018-08-17T16:11:41.182Z,42.54
2018-08-17T16:14:09.956Z,42.84
2018-08-17T16:16:38.622Z,43.29
2018-08-17T16:19:07.312Z,43.42
2018-08-17T16:21:36.045Z,43.48
2018-08-17T16:24:10.103Z,43.06
2018-08-17T16:26:38.827Z,43.46
2018-08-17T16:29:07.484Z,43.45
2018-08-17T16:31:39.860Z,43.19
2018-08-17T16:34:09.054Z,43.30
2018-08-17T16:36:39.773Z,43.12
2018-08-17T16:39:11.345Z,42.72
2018-08-17T16:41:40.206Z,42.62
2018-08-17T16:44:09.025Z,42.59
2018-08-17T16:46:39.408Z,42.50
2018-08-17T16:49:08.270Z,42.33
2018-08-17T16:51:37.136Z,42.14
2018-08-17T16:54:05.824Z,42.13
2018-08-17T16:56:34.682Z,42.20
2018-08-17T16:59:03.633Z,41.95
2018-08-17T17:01:32.343Z,41.78
2018-08-17T17:04:01.023Z,41.58
2018-08-17T17:06:29.728Z,41.24
2018-08-17T17:09:05.336Z,40.49
2018-08-17T17:11:34.371Z,40.44
2018-08-17T17:14:03.069Z,40.23
2018-08-17T17:16:38.099Z,39.97
2018-08-17T17:19:13.581Z,39.54
2018-08-17T17:21:43.238Z,39.31
2018-08-17T17:24:11.980Z,38.90
2018-08-17T17:26:40.736Z,38.42
2018-08-17T17:29:09.787Z,37.95
2018-08-17T17:31:38.454Z,37.63
2018-08-17T17:34:07.652Z,37.13
2018-08-17T17:36:36.496Z,36.58
2018-08-17T17:39:07.956Z,36.04
2018-08-17T17:41:36.629Z,35.05
2018-08-17T17:44:05.289Z,34.03
2018-08-17T17:46:33.925Z,33.21
2018-08-17T17:49:02.662Z,32.46
2018-08-17T17:51:31.318Z,31.76
2018-08-17T17:54:00.046Z,31.19
2018-08-17T17:56:28.923Z,30.64
2018-08-17T17:59:02.887Z,30.20
2018-08-17T18:01:31.646Z,29.72
2018-08-17T18:04:00.672Z,29.36
2018-08-17T18:06:29.313Z,29.02
2018-08-17T18:09:00.479Z,28.67
2018-08-17T18:11:29.330Z,28.36
2018-08-17T18:13:58.263Z,28.04
2018-08-17T18:16:26.896Z,27.79
2018-08-17T18:18:55.654Z,27.54
2018-08-17T18:21:29.221Z,27.42
2018-08-17T18:24:02.225Z,27.22
2018-08-17T18:26:30.862Z,27.04
2018-08-17T18:28:59.526Z,26.84
2018-08-17T18:31:29.081Z,26.69
2018-08-17T18:33:58.119Z,26.55
2018-08-17T18:36:26.735Z,26.40
2018-08-17T18:38:55.350Z,26.29
2018-08-17T18:41:24.013Z,26.15
2018-08-17T18:43:52.632Z,26.05
2018-08-17T18:46:21.306Z,25.96
2018-08-17T18:48:50.001Z,25.87
2018-08-17T18:51:18.633Z,25.79
2018-08-17T18:53:47.547Z,25.68
2018-08-17T18:56:16.247Z,25.60
2018-08-17T18:58:44.912Z,25.52
2018-08-17T19:01:13.545Z,25.39
2018-08-17T19:03:42.247Z,25.28
2018-08-17T19:06:11.265Z,25.23
2018-08-17T19:08:40.448Z,25.13
2018-08-17T19:11:09.166Z,25.04
2018-08-17T19:13:37.767Z,24.92
2018-08-17T19:16:06.430Z,24.83
2018-08-17T19:18:35.083Z,24.79
2018-08-17T19:21:05.222Z,24.72
2018-08-17T19:23:33.826Z,24.62
2018-08-17T19:26:02.526Z,24.51
2018-08-17T19:28:31.136Z,24.40
2018-08-17T19:30:59.872Z,24.30
2018-08-17T19:33:28.533Z,24.27
2018-08-17T19:35:57.171Z,24.21
2018-08-17T19:38:25.846Z,24.21
2018-08-17T19:40:54.407Z,24.22
2018-08-17T19:43:23.027Z,24.22
2018-08-17T19:45:51.666Z,24.15
2018-08-17T19:48:20.353Z,24.10
2018-08-17T19:50:49.001Z,24.07
2018-08-17T19:53:17.630Z,23.98
2018-08-17T19:55:46.282Z,23.90
2018-08-17T19:58:14.917Z,23.89
2018-08-17T20:00:43.544Z,23.87
2018-08-17T20:03:12.149Z,23.84
2018-08-17T20:05:40.781Z,23.79
2018-08-17T20:08:09.443Z,23.78
2018-08-17T20:10:38.079Z,23.72
2018-08-17T20:13:06.766Z,23.66
2018-08-17T20:15:35.498Z,23.68
2018-08-17T20:18:04.196Z,23.64
2018-08-17T20:20:32.830Z,23.53
2018-08-17T20:23:02.781Z,23.53
2018-08-17T20:25:31.430Z,23.79
2018-08-17T20:28:00.076Z,23.96
2018-08-17T20:30:28.917Z,24.04
2018-08-17T20:32:57.801Z,24.05
2018-08-17T20:35:26.592Z,24.01
2018-08-17T20:37:55.501Z,24.05
2018-08-17T20:40:24.204Z,23.94
2018-08-17T20:42:53.150Z,23.87
2018-08-17T20:45:25.883Z,23.90
2018-08-17T20:47:55.605Z,23.80
2018-08-17T20:50:24.405Z,23.68
2018-08-17T20:52:59.614Z,23.54
2018-08-17T20:55:28.512Z,23.46
2018-08-17T20:57:58.199Z,23.36
2018-08-17T21:00:28.209Z,23.21
2018-08-17T21:02:57.145Z,23.10
2018-08-17T21:05:25.815Z,23.02
2018-08-17T21:07:55.061Z,22.92
2018-08-17T21:10:23.869Z,22.83
2018-08-17T21:12:52.576Z,22.83
2018-08-17T21:15:21.257Z,22.84
2018-08-17T21:17:49.978Z,22.78
2018-08-17T21:20:18.951Z,22.72
2018-08-17T21:22:47.638Z,22.64
2018-08-17T21:25:16.266Z,22.57
2018-08-17T21:27:44.890Z,22.55
2018-08-17T21:30:14.197Z,22.60
2018-08-17T21:32:42.942Z,22.49
2018-08-17T21:35:11.777Z,22.38
2018-08-17T21:37:40.529Z,22.34
2018-08-17T21:40:16.543Z,22.32
2018-08-17T21:42:45.418Z,22.29
2018-08-17T21:45:14.191Z,22.20
2018-08-17T21:47:42.885Z,22.13
2018-08-17T21:50:14.450Z,22.06
2018-08-17T21:52:43.642Z,22.01
2018-08-17T21:55:12.583Z,21.94
2018-08-17T21:57:41.234Z,21.93
2018-08-17T22:00:16.736Z,21.85
2018-08-17T22:02:45.397Z,21.79
2018-08-17T22:05:18.122Z,21.74
2018-08-17T22:07:46.749Z,21.72
2018-08-17T22:10:15.352Z,21.72
2018-08-17T22:12:44.009Z,21.72
2018-08-17T22:15:12.724Z,21.73
2018-08-17T22:17:41.478Z,21.76
2018-08-17T22:20:11.041Z,21.74
2018-08-17T22:22:39.799Z,21.75
2018-08-17T22:25:17.593Z,21.70
2018-08-17T22:27:48.385Z,21.68
2018-08-17T22:30:20.827Z,21.66
2018-08-17T22:32:49.565Z,21.62
2018-08-17T22:35:18.411Z,21.58
2018-08-17T22:37:47.065Z,21.55
2018-08-17T22:40:15.840Z,21.47
2018-08-17T22:42:46.819Z,21.39
2018-08-17T22:45:15.393Z,21.31
2018-08-17T22:47:44.099Z,21.29
2018-08-17T22:50:19.238Z,21.28
2018-08-17T22:52:47.927Z,21.20
2018-08-17T22:55:16.593Z,21.14
2018-08-17T22:57:45.176Z,21.08
2018-08-17T23:00:19.850Z,21.14
2018-08-17T23:02:49.700Z,21.16
2018-08-17T23:05:20.543Z,21.27
2018-08-17T23:07:49.185Z,21.26
2018-08-17T23:10:19.149Z,21.17
2018-08-17T23:12:49.436Z,21.14
2018-08-17T23:15:18.085Z,21.16
2018-08-17T23:17:56.144Z,21.07
2018-08-17T23:20:29.873Z,21.01
2018-08-17T23:22:59.819Z,21.00
2018-08-17T23:25:28.546Z,20.92
2018-08-17T23:27:57.188Z,20.82
2018-08-17T23:30:25.819Z,20.79
2018-08-17T23:32:54.636Z,20.74
2018-08-17T23:35:23.302Z,20.67
2018-08-17T23:37:51.914Z,20.61
2018-08-17T23:40:20.608Z,20.65
2018-08-17T23:42:49.202Z,20.60
2018-08-17T23:45:18.526Z,20.58
2018-08-17T23:47:47.190Z,20.54
2018-08-17T23:50:16.536Z,20.56
2018-08-17T23:52:45.339Z,20.53
2018-08-17T23:55:16.125Z,20.45
2018-08-17T23:57:44.796Z,20.50
